Bemidji, MN (56601)

6:01 PM CDT on May 22, 2017 (GMT -0500)
Little Bass Lake | | Change Station

Elev 1414 ft 47.51 °N, 94.80 °W | Updated 29 seconds ago

Overcast
Overcast
46.6 °F
Feels Like 47 °F
N
0.0
Wind Variable Wind from NW
Gusts 0.0 mph

Today
High -- | Low -- °F
--% Chance of Precip.
Yesterday
High -- | Low -- °F
Precip. -- in
Pressure 29.83 in
Visibility 10.0 miles
Clouds Scattered Clouds 800 ft
Scattered Clouds 1200 ft
Overcast 3100 ft
Windchill 47 °F
Dew Point 44 °F
Humidity 92%
Rainfall 0.12 in
Snow Depth Not available.
5:34 AM 8:58 PM
Waning Crescent, 12% visible
METAR KBJI 222254Z AUTO 33006KT 10SM SCT008 SCT012 OVC031 07/06 A2983 RMK AO2 T00710060
Pressure 29.83 in
Visibility 10.0 miles
Clouds Scattered Clouds 800 ft
Scattered Clouds 1200 ft
Overcast 3100 ft
Windchill 47 °F
Dew Point 44 °F
Humidity 92%
Rainfall 0.12 in
Snow Depth Not available.
5:34 AM 8:58 PM
Waning Crescent, 12% visible
METAR KBJI 222254Z AUTO 33006KT 10SM SCT008 SCT012 OVC031 07/06 A2983 RMK AO2 T00710060

Get Severe Weather Alerts

Thanks for signing up!

Be on the lookout for a verification email in your inbox.

You'll start receiving the daily forecast at 6 AM.

×

10-Day Weather Forecast

Almanac

Astronomy

May. 22, 2017 Rise Set
Actual Time
Civil Twilight
Nautical Twilight
Astronomical Twilight
Moon
Length of Visible Light
Length of Day
Tomorrow will be .
, % of the Moon is Illuminated

Today's Extremes

State Highs State Lows

Community

WunderPhotos

Category 6

Welcome to Category 6. This is the collective home for Weather Underground's featured writeups by Dr. Jeff Masters (right), Bob Henson (left), Chris Burt, and other regular contributors.

Nearby

Air Quality

  Air Quality AQ Index Pollutant
Not available.

Snow Depth

Station Depth Elevation

Earthquake Activity

City Distance Mag. Time & Date
Minimum magnitude displayed is 2.5.

Coastal Water Temperatures

Place Temperature

Stations

Nearby Weather Stations

Station Location Temp. Windchill Dew Point Humidity Wind Precip. Elev Updated Type
                   

Watches & Warnings

There are currently no watches in effect.